Time;durP1;ratioP1;P1;durP2;ratioP2;P2;SDS_P1;SDS_P2;PMS_P1;PMS_P2;Temp;Humidity;BMP_temperature;BMP_pressure;BME280_temperature;BME280_humidity;BME280_pressure;Samples;Min_cycle;Max_cycle;Signal;HPM_P1;HPM_P2
2024/01/18 00:00:27;;;;;;;3.70;2.75;;;4.20;99.90;;;3.32;100.00;98477.03;4184980;28;20036;-68
2024/01/18 00:02:28;;;;;;;3.88;3.10;;;4.20;99.90;;;3.31;100.00;98487.63;4184942;28;20481;-68
2024/01/18 00:04:29;;;;;;;2.88;2.58;;;4.20;99.90;;;3.33;100.00;98515.16;4184827;28;20032;-68
2024/01/18 00:06:31;;;;;;;3.58;3.03;;;4.20;99.90;;;3.28;100.00;98493.19;4184998;28;20033;-68
2024/01/18 00:08:32;;;;;;;2.70;2.08;;;4.20;99.90;;;3.31;100.00;98500.66;4179058;28;20032;-68
2024/01/18 00:10:34;;;;;;;3.70;2.45;;;4.20;99.90;;;3.22;100.00;98507.69;4174782;28;20017;-68
2024/01/18 00:12:36;;;;;;;2.40;2.20;;;4.20;99.90;;;3.21;100.00;98516.47;4196782;28;20020;-68
2024/01/18 00:14:37;;;;;;;3.20;2.90;;;4.10;99.90;;;3.26;100.00;98519.38;4171866;28;20032;-68
2024/01/18 00:16:38;;;;;;;2.35;2.10;;;4.10;99.90;;;3.28;100.00;98525.25;4184882;28;20404;-68
2024/01/18 00:18:39;;;;;;;2.78;2.00;;;4.10;99.90;;;3.27;100.00;98525.41;4183455;28;20502;-68
2024/01/18 00:20:40;;;;;;;2.30;2.03;;;4.10;99.90;;;3.19;100.00;98533.25;4184620;28;20036;-68
2024/01/18 00:22:41;;;;;;;2.55;2.15;;;4.10;99.90;;;3.18;100.00;98537.63;4169578;28;20056;-69
2024/01/18 00:24:42;;;;;;;2.20;1.70;;;4.10;99.90;;;3.23;100.00;98539.72;4171406;28;20076;-68
2024/01/18 00:26:43;;;;;;;2.60;2.03;;;4.10;99.90;;;3.17;100.00;98556.84;4171133;28;20029;-68
2024/01/18 00:28:43;;;;;;;2.45;2.05;;;4.10;99.90;;;3.20;100.00;98551.28;4183008;28;20048;-68
2024/01/18 00:30:44;;;;;;;2.28;2.08;;;4.10;99.90;;;3.19;100.00;98560.09;4171343;28;20049;-68
2024/01/18 00:32:45;;;;;;;2.30;1.92;;;4.10;99.90;;;3.26;100.00;98576.69;4176582;28;20047;-68
2024/01/18 00:34:46;;;;;;;1.92;1.77;;;4.10;99.90;;;3.25;100.00;98580.31;4180457;28;20115;-68
2024/01/18 00:36:47;;;;;;;2.05;1.73;;;4.10;99.90;;;3.16;100.00;98586.47;4186692;28;20025;-68
2024/01/18 00:38:48;;;;;;;2.55;1.98;;;4.10;99.90;;;3.22;100.00;98585.00;4187579;28;20025;-68
2024/01/18 00:40:49;;;;;;;2.17;1.95;;;4.10;99.90;;;3.18;100.00;98584.53;4182200;28;20033;-68
2024/01/18 00:42:50;;;;;;;1.80;1.40;;;4.10;99.90;;;3.23;100.00;98602.25;4170967;28;20041;-68
2024/01/18 00:44:51;;;;;;;2.28;1.90;;;4.10;99.90;;;3.20;100.00;98598.19;4171021;28;20029;-68
2024/01/18 00:46:52;;;;;;;2.20;1.58;;;4.10;99.90;;;3.19;100.00;98606.19;4171148;28;20018;-68
2024/01/18 00:48:53;;;;;;;2.03;1.83;;;4.00;99.90;;;3.14;100.00;98598.84;4171109;28;20033;-68
2024/01/18 00:50:53;;;;;;;1.33;1.23;;;4.10;99.90;;;3.20;100.00;98616.41;4176116;28;20029;-68
2024/01/18 00:52:54;;;;;;;2.17;1.60;;;4.10;99.90;;;3.23;100.00;98617.88;4186289;28;20086;-68
2024/01/18 00:54:55;;;;;;;2.40;1.70;;;4.10;99.90;;;3.20;100.00;98611.22;4186067;28;20462;-68
2024/01/18 00:56:56;;;;;;;2.30;1.80;;;4.00;99.90;;;3.14;100.00;98614.47;4186106;28;20182;-68
2024/01/18 00:58:57;;;;;;;1.95;1.50;;;4.10;99.90;;;3.13;100.00;98623.28;4186450;28;20041;-68
2024/01/18 01:00:58;;;;;;;1.50;1.10;;;4.00;99.90;;;3.14;100.00;98619.66;4187274;28;20047;-68
2024/01/18 01:02:59;;;;;;;3.05;1.45;;;4.00;99.90;;;3.15;100.00;98618.72;4172554;28;20029;-68
2024/01/18 01:05:00;;;;;;;1.60;1.40;;;4.00;99.90;;;3.14;100.00;98639.69;4174390;28;20029;-68
2024/01/18 01:07:02;;;;;;;1.70;1.58;;;4.00;99.90;;;3.16;100.00;98635.97;4170867;28;20037;-68
2024/01/18 01:09:06;;;;;;;1.52;1.27;;;4.00;99.90;;;3.18;100.00;98652.25;4177112;28;20023;-68
2024/01/18 01:11:09;;;;;;;2.47;1.58;;;4.00;99.90;;;3.13;100.00;98646.72;4176096;28;20017;-68
2024/01/18 01:13:11;;;;;;;2.10;1.70;;;4.00;99.90;;;3.13;100.00;98653.72;4170643;28;20059;-68
2024/01/18 01:15:12;;;;;;;2.00;1.67;;;4.00;99.90;;;3.18;100.00;98662.66;4170672;28;20041;-68
2024/01/18 01:17:13;;;;;;;1.70;1.60;;;4.00;99.90;;;3.15;100.00;98668.19;4170692;28;20091;-68
2024/01/18 01:19:13;;;;;;;1.48;1.20;;;4.00;99.90;;;3.15;100.00;98663.00;4170508;28;20044;-69
2024/01/18 01:21:14;;;;;;;2.75;1.58;;;4.00;99.90;;;3.15;100.00;98678.63;4173558;28;20025;-68
2024/01/18 01:23:15;;;;;;;2.00;1.40;;;4.00;99.90;;;3.14;100.00;98689.19;4177286;28;20068;-68
2024/01/18 01:25:16;;;;;;;2.17;1.65;;;4.00;99.90;;;3.16;100.00;98680.25;4170389;28;20037;-68
2024/01/18 01:27:17;;;;;;;1.50;1.30;;;4.00;99.90;;;3.13;100.00;98698.81;4170327;28;20026;-68
2024/01/18 01:29:18;;;;;;;1.70;1.50;;;4.00;99.90;;;3.16;100.00;98701.09;4170663;28;20451;-68
2024/01/18 01:31:19;;;;;;;1.33;1.10;;;4.00;99.90;;;3.14;100.00;98700.41;4178513;28;20025;-68
2024/01/18 01:33:19;;;;;;;1.90;1.50;;;4.00;99.90;;;3.14;100.00;98718.66;4175338;28;20087;-68
2024/01/18 01:35:20;;;;;;;2.08;1.33;;;4.00;99.90;;;3.11;100.00;98721.56;4170253;28;20041;-68
2024/01/18 01:37:21;;;;;;;1.95;1.40;;;4.00;99.90;;;3.09;100.00;98722.72;4170461;28;20150;-68
2024/01/18 01:39:22;;;;;;;1.45;1.20;;;4.00;99.90;;;3.10;100.00;98727.78;4170519;28;20034;-68
2024/01/18 01:41:23;;;;;;;1.88;1.50;;;4.00;99.90;;;3.09;100.00;98736.56;4178568;28;20021;-68
2024/01/18 01:43:24;;;;;;;1.98;1.73;;;3.90;99.90;;;3.12;100.00;98751.88;4171000;28;20563;-68
2024/01/18 01:45:25;;;;;;;2.28;1.70;;;4.00;99.90;;;3.12;100.00;98759.69;4170193;28;20021;-68
2024/01/18 01:47:25;;;;;;;1.67;1.52;;;4.00;99.90;;;3.09;100.00;98772.19;4170213;28;20041;-68
2024/01/18 01:49:27;;;;;;;2.05;1.70;;;3.90;99.90;;;3.04;100.00;98775.28;4170287;28;20026;-68
2024/01/18 01:51:49;;;;;;;2.15;1.92;;;3.90;99.90;;;3.14;100.00;98796.81;4178429;28;20036;-68
2024/01/18 01:53:50;;;;;;;2.35;1.92;;;4.00;99.90;;;3.18;100.00;98797.31;4174738;28;20021;-68
2024/01/18 01:55:51;;;;;;;3.03;1.80;;;4.00;99.90;;;3.01;100.00;98796.44;4186617;28;20052;-68
2024/01/18 01:57:52;;;;;;;2.65;1.88;;;3.90;99.90;;;2.99;100.00;98793.16;4185876;28;20017;-68
2024/01/18 01:59:55;;;;;;;2.00;1.70;;;3.90;99.90;;;3.03;100.00;98804.09;4168588;28;20030;-68
2024/01/18 02:01:56;;;;;;;1.85;1.67;;;3.90;99.90;;;3.04;100.00;98821.34;4180655;28;20018;-68
2024/01/18 02:03:57;;;;;;;2.20;1.83;;;3.90;99.90;;;2.96;100.00;98819.50;4170057;28;20022;-68
2024/01/18 02:05:58;;;;;;;2.20;1.98;;;3.80;99.90;;;2.93;100.00;98825.03;4180947;28;20032;-68
2024/01/18 02:07:59;;;;;;;2.83;2.13;;;3.80;99.90;;;2.89;100.00;98843.72;4168663;28;20014;-68
2024/01/18 02:10:00;;;;;;;3.40;2.33;;;3.80;99.90;;;2.76;100.00;98833.72;4193148;28;20033;-68
2024/01/18 02:12:03;;;;;;;2.53;2.08;;;3.70;99.90;;;2.77;100.00;98835.34;4189930;28;20571;-68
2024/01/18 02:14:04;;;;;;;3.60;2.45;;;3.70;99.90;;;2.75;100.00;98863.31;4180352;28;20036;-68
2024/01/18 02:16:05;;;;;;;2.47;2.17;;;3.60;99.90;;;2.72;100.00;98859.22;4186094;28;20423;-68
2024/01/18 02:18:06;;;;;;;2.55;2.35;;;3.60;99.90;;;2.71;100.00;98857.63;4185252;28;20031;-68
2024/01/18 02:20:08;;;;;;;3.78;2.67;;;3.60;99.90;;;2.72;100.00;98889.66;4185154;28;20031;-68
2024/01/18 02:22:11;;;;;;;3.22;2.65;;;3.60;99.90;;;2.63;100.00;98873.16;4174752;28;20084;-68
2024/01/18 02:24:45;;;;;;;3.47;2.50;;;3.50;99.90;;;2.69;100.00;98877.75;4167972;28;20037;-68
2024/01/18 02:26:46;;;;;;;4.43;2.90;;;3.60;99.90;;;2.69;100.00;98895.97;4177177;28;20515;-68
2024/01/18 02:28:55;;;;;;;3.72;2.80;;;3.50;99.90;;;2.62;100.00;98881.94;4169455;28;20029;-68
2024/01/18 02:30:56;;;;;;;4.32;3.20;;;3.50;99.90;;;2.63;100.00;98893.16;4171413;28;20045;-68
2024/01/18 02:32:57;;;;;;;3.85;2.70;;;3.50;99.90;;;2.66;100.00;98903.25;4175119;28;20032;-68
2024/01/18 02:34:58;;;;;;;4.50;3.20;;;3.50;99.90;;;2.60;100.00;98904.69;4169341;28;20036;-68
2024/01/18 02:36:59;;;;;;;4.85;3.17;;;3.40;99.90;;;2.54;100.00;98920.91;4169257;28;20021;-68
2024/01/18 02:39:00;;;;;;;4.22;3.25;;;3.40;99.90;;;2.48;100.00;98913.69;4169431;28;20033;-68
2024/01/18 02:41:01;;;;;;;4.63;3.40;;;3.40;99.90;;;2.42;100.00;98923.91;4173690;28;20385;-68
2024/01/18 02:43:02;;;;;;;3.67;3.15;;;3.30;99.90;;;2.55;100.00;98926.94;4174649;28;20037;-68
2024/01/18 02:45:03;;;;;;;4.18;3.10;;;3.30;99.90;;;2.44;100.00;98934.97;4167212;28;20029;-68
2024/01/18 02:47:04;;;;;;;3.55;3.00;;;3.30;99.90;;;2.41;100.00;98940.47;4167847;28;20104;-68
2024/01/18 02:49:05;;;;;;;5.82;3.38;;;3.20;99.90;;;2.39;100.00;98942.41;4175431;28;20032;-68
2024/01/18 02:51:06;;;;;;;4.63;3.00;;;3.20;99.90;;;2.36;100.00;98945.31;4184401;28;20480;-68
2024/01/18 02:53:07;;;;;;;6.53;3.70;;;3.20;99.90;;;2.38;100.00;98954.59;4171976;28;20028;-68
2024/01/18 02:55:08;;;;;;;5.47;3.35;;;3.20;99.90;;;2.37;100.00;98958.16;4185743;28;20017;-68
2024/01/18 02:57:09;;;;;;;5.45;3.20;;;3.20;99.90;;;2.35;100.00;98972.28;4185197;28;20057;-68
2024/01/18 02:59:11;;;;;;;5.35;3.63;;;3.20;99.90;;;2.38;100.00;98970.22;4184617;28;20036;-68
2024/01/18 03:01:12;;;;;;;4.95;3.67;;;3.20;99.90;;;2.38;100.00;98974.59;4183975;28;20048;-68
2024/01/18 03:03:14;;;;;;;4.85;3.63;;;3.20;99.90;;;2.38;100.00;98969.38;4170964;28;20021;-68
2024/01/18 03:05:15;;;;;;;5.10;3.53;;;3.20;99.90;;;2.39;100.00;98981.44;4182232;28;20432;-68
2024/01/18 03:07:15;;;;;;;5.20;3.10;;;3.20;99.90;;;2.38;100.00;98970.22;4175417;28;20018;-69
2024/01/18 03:09:16;;;;;;;6.32;3.42;;;3.20;99.90;;;2.45;100.00;98986.06;4164357;28;20623;-68
2024/01/18 03:11:17;;;;;;;4.40;3.10;;;3.20;99.90;;;2.45;100.00;98980.84;4171893;28;20017;-68
2024/01/18 03:13:18;;;;;;;5.70;3.55;;;3.20;99.90;;;2.48;100.00;98991.75;4168768;28;20024;-68
2024/01/18 03:15:19;;;;;;;5.10;3.38;;;3.30;99.90;;;2.53;100.00;98996.53;4177338;28;20033;-68
2024/01/18 03:17:20;;;;;;;5.68;3.70;;;3.30;99.90;;;2.51;100.00;99008.88;4168811;28;20038;-68
2024/01/18 03:19:21;;;;;;;5.03;3.15;;;3.30;99.90;;;2.53;100.00;99009.56;4168728;28;20022;-68
2024/01/18 03:21:22;;;;;;;5.75;3.30;;;3.40;99.90;;;2.52;100.00;99019.13;4169731;28;20079;-68
2024/01/18 03:23:22;;;;;;;4.72;3.35;;;3.30;99.90;;;2.53;100.00;99025.16;4168914;28;20087;-68
2024/01/18 03:25:23;;;;;;;6.82;3.20;;;3.40;99.90;;;2.57;100.00;99034.31;4179630;28;20481;-68
2024/01/18 03:27:24;;;;;;;5.07;3.13;;;3.40;99.90;;;2.60;100.00;99039.22;4168393;28;20124;-68
2024/01/18 03:29:25;;;;;;;4.35;3.05;;;3.40;99.90;;;2.58;100.00;99043.75;4168778;28;20026;-68
2024/01/18 03:31:26;;;;;;;6.43;3.55;;;3.40;99.90;;;2.66;100.00;99062.88;4168902;28;20021;-68
2024/01/18 03:33:27;;;;;;;4.30;2.90;;;3.40;99.90;;;2.63;100.00;99060.56;4168514;28;20029;-68
2024/01/18 03:35:27;;;;;;;4.65;2.97;;;3.50;99.90;;;2.62;100.00;99076.34;4168530;28;20404;-68
2024/01/18 03:37:28;;;;;;;4.03;3.35;;;3.40;99.90;;;2.60;100.00;99078.25;4168675;28;20029;-68
2024/01/18 03:39:34;;;;;;;4.70;2.88;;;3.40;99.90;;;2.60;100.00;99079.06;4168646;28;20026;-68
2024/01/18 03:41:35;;;;;;;6.05;3.47;;;3.40;99.90;;;2.60;100.00;99088.66;4168405;28;20079;-69
2024/01/18 03:43:36;;;;;;;4.53;3.25;;;3.40;99.90;;;2.59;100.00;99093.06;4168641;28;20021;-69
2024/01/18 03:45:37;;;;;;;5.38;3.47;;;3.40;99.90;;;2.67;100.00;99087.13;4168642;28;20034;-68
2024/01/18 03:47:38;;;;;;;5.28;3.75;;;3.50;99.90;;;2.68;100.00;99105.22;4168735;28;20017;-68
2024/01/18 03:49:41;;;;;;;5.10;3.63;;;3.50;99.90;;;2.67;100.00;99106.16;4168532;28;20025;-68
2024/01/18 03:51:42;;;;;;;5.22;3.35;;;3.50;99.90;;;2.67;100.00;99110.56;4170279;28;20571;-68
2024/01/18 03:53:43;;;;;;;7.15;3.60;;;3.50;99.90;;;2.64;100.00;99123.84;4179877;28;20075;-68
2024/01/18 03:55:44;;;;;;;5.28;3.63;;;3.50;99.90;;;2.65;100.00;99125.50;4168509;28;20025;-68
2024/01/18 03:57:45;;;;;;;5.13;3.10;;;3.50;99.90;;;2.66;100.00;99138.34;4171384;28;20518;-68
2024/01/18 03:59:47;;;;;;;5.88;3.35;;;3.50;99.90;;;2.69;100.00;99139.84;4171909;28;20087;-68
2024/01/18 04:01:48;;;;;;;3.60;2.92;;;3.50;99.90;;;2.67;100.00;99140.00;4171845;28;20393;-68
2024/01/18 04:03:49;;;;;;;4.88;3.25;;;3.50;99.90;;;2.64;100.00;99139.47;4171902;28;20050;-68
2024/01/18 04:05:50;;;;;;;3.97;3.00;;;3.50;99.90;;;2.60;100.00;99154.56;4171829;28;20060;-68
2024/01/18 04:07:51;;;;;;;5.18;3.28;;;3.50;99.90;;;2.59;100.00;99154.72;4171748;28;20032;-68
2024/01/18 04:09:52;;;;;;;4.93;3.33;;;3.40;99.90;;;2.58;100.00;99155.66;4177638;28;20531;-68
2024/01/18 04:11:54;;;;;;;5.38;3.55;;;3.40;99.90;;;2.57;100.00;99156.66;4179289;28;20013;-68
2024/01/18 04:13:55;;;;;;;4.03;3.28;;;3.40;99.90;;;2.59;100.00;99173.75;4188127;28;20052;-68
2024/01/18 04:15:55;;;;;;;5.65;3.38;;;3.40;99.90;;;2.58;100.00;99184.31;4187961;28;20032;-68
2024/01/18 04:17:56;;;;;;;5.97;3.33;;;3.40;99.90;;;2.58;100.00;99184.31;4188199;28;20029;-68
2024/01/18 04:19:57;;;;;;;5.05;3.38;;;3.40;99.90;;;2.56;100.00;99201.84;4186889;28;20021;-68
2024/01/18 04:21:58;;;;;;;4.95;4.00;;;3.40;99.90;;;2.56;100.00;99199.25;4187993;28;20025;-68
2024/01/18 04:23:59;;;;;;;5.60;3.60;;;3.40;99.90;;;2.55;100.00;99195.00;4186277;28;20528;-68
2024/01/18 04:26:00;;;;;;;5.65;4.07;;;3.40;99.90;;;2.57;100.00;99199.09;4203355;28;20087;-68
2024/01/18 04:28:00;;;;;;;6.65;3.78;;;3.40;99.90;;;2.62;100.00;99204.72;4187724;28;20373;-68
2024/01/18 04:30:02;;;;;;;4.70;3.30;;;3.40;99.90;;;2.61;100.00;99204.84;4187912;28;20025;-68
2024/01/18 04:32:03;;;;;;;6.45;4.47;;;3.50;99.90;;;2.63;100.00;99210.72;4187912;28;20029;-68
2024/01/18 04:34:04;;;;;;;5.43;3.97;;;3.40;99.90;;;2.62;100.00;99206.50;4187822;28;20029;-68
2024/01/18 04:36:05;;;;;;;6.45;3.97;;;3.40;99.90;;;2.61;100.00;99208.25;4187812;28;20025;-68
2024/01/18 04:38:07;;;;;;;6.00;4.00;;;3.40;99.90;;;2.60;100.00;99197.97;4177319;28;20511;-68
2024/01/18 04:40:09;;;;;;;6.50;3.83;;;3.50;99.90;;;2.68;100.00;99222.38;4171094;28;20144;-68
2024/01/18 04:42:09;;;;;;;6.00;3.88;;;3.50;99.90;;;2.66;100.00;99233.84;4169792;28;20029;-68
2024/01/18 04:44:10;;;;;;;6.45;4.70;;;3.50;99.90;;;2.70;100.00;99240.44;4171109;28;20029;-68
2024/01/18 04:46:11;;;;;;;5.90;3.88;;;3.50;99.90;;;2.65;100.00;99242.66;4171097;28;20025;-68
2024/01/18 04:48:12;;;;;;;6.40;3.92;;;3.50;99.90;;;2.66;100.00;99252.91;4171003;28;20080;-68
2024/01/18 04:50:13;;;;;;;5.82;3.78;;;3.50;99.90;;;2.63;100.00;99275.78;4171058;28;20025;-68
2024/01/18 04:52:14;;;;;;;6.20;4.20;;;3.40;99.90;;;2.58;100.00;99280.59;4177189;28;20013;-68
2024/01/18 04:54:15;;;;;;;5.95;4.10;;;3.40;99.90;;;2.55;100.00;99292.13;4187467;28;20048;-68
2024/01/18 04:56:16;;;;;;;5.03;3.70;;;3.40;99.90;;;2.53;100.00;99291.44;4187387;28;20025;-68
2024/01/18 04:58:17;;;;;;;8.05;3.92;;;3.40;99.90;;;2.53;100.00;99296.66;4187199;28;20044;-68
2024/01/18 05:00:18;;;;;;;7.53;3.55;;;3.40;99.90;;;2.54;100.00;99308.69;4186458;28;20025;-68
2024/01/18 05:02:19;;;;;;;5.22;3.75;;;3.40;99.90;;;2.56;100.00;99319.81;4187113;28;20064;-68
2024/01/18 05:04:20;;;;;;;6.80;3.95;;;3.40;99.90;;;2.56;100.00;99319.81;4185973;28;20086;-68
2024/01/18 05:06:21;;;;;;;8.07;3.60;;;3.40;99.90;;;2.56;100.00;99318.97;4187175;28;20029;-68
2024/01/18 05:08:23;;;;;;;5.90;4.10;;;3.40;99.90;;;2.53;100.00;99321.84;4186654;28;20021;-68
2024/01/18 05:10:23;;;;;;;7.28;3.60;;;3.40;99.90;;;2.48;100.00;99321.47;4178027;28;20029;-68
2024/01/18 05:12:24;;;;;;;7.07;4.10;;;3.30;99.90;;;2.45;100.00;99319.94;4197995;28;20031;-68
2024/01/18 05:14:25;;;;;;;5.85;3.85;;;3.30;99.90;;;2.42;100.00;99335.03;4170580;28;20039;-68
2024/01/18 05:16:26;;;;;;;6.70;4.57;;;3.30;99.90;;;2.41;100.00;99338.59;4170716;28;20033;-68
2024/01/18 05:18:27;;;;;;;5.95;4.35;;;3.20;99.90;;;2.36;100.00;99338.19;4170563;28;20044;-68
2024/01/18 05:20:28;;;;;;;8.70;4.75;;;3.20;99.90;;;2.35;100.00;99344.34;4170632;28;20113;-68
2024/01/18 05:22:30;;;;;;;7.18;4.68;;;3.20;99.90;;;2.34;100.00;99353.91;4170725;28;20040;-68
2024/01/18 05:24:31;;;;;;;6.40;4.95;;;3.20;99.90;;;2.35;100.00;99349.53;4170563;28;20064;-68
2024/01/18 05:26:32;;;;;;;5.57;4.43;;;3.20;99.90;;;2.29;100.00;99357.91;4170371;28;20026;-68
2024/01/18 05:28:33;;;;;;;5.50;3.80;;;3.10;99.90;;;2.28;100.00;99359.69;4169203;28;20168;-68
2024/01/18 05:30:34;;;;;;;8.38;4.22;;;3.10;99.90;;;2.29;100.00;99368.31;4185572;28;20058;-68
2024/01/18 05:32:35;;;;;;;6.15;4.68;;;3.10;99.90;;;2.22;100.00;99370.63;4170596;28;20435;-68
2024/01/18 05:34:36;;;;;;;5.75;4.60;;;3.10;99.90;;;2.24;100.00;99377.34;4170303;28;20041;-68
2024/01/18 05:36:37;;;;;;;7.65;4.47;;;3.10;99.90;;;2.25;100.00;99378.16;4170522;28;20021;-68
2024/01/18 05:38:38;;;;;;;6.53;4.75;;;3.10;99.90;;;2.28;100.00;99379.66;4183636;28;20518;-68
2024/01/18 05:40:38;;;;;;;7.30;4.63;;;3.10;99.90;;;2.34;100.00;99384.31;4169262;28;20029;-68
2024/01/18 05:42:39;;;;;;;7.13;4.82;;;3.10;99.90;;;2.30;100.00;99398.56;4185395;28;20076;-68
2024/01/18 05:44:40;;;;;;;7.93;5.00;;;3.10;99.90;;;2.31;100.00;99400.19;4170247;28;20507;-68
2024/01/18 05:46:41;;;;;;;6.35;4.63;;;3.10;99.90;;;2.33;100.00;99406.09;4182580;28;20039;-68
2024/01/18 05:48:42;;;;;;;9.25;5.15;;;3.10;99.90;;;2.26;100.00;99415.41;4170241;28;20026;-68
2024/01/18 05:50:43;;;;;;;6.00;4.50;;;3.10;99.90;;;2.24;100.00;99428.53;4168819;28;20882;-68
2024/01/18 05:52:44;;;;;;;8.30;5.20;;;3.10;99.90;;;2.19;100.00;99433.34;4180495;28;20100;-68
2024/01/18 05:54:45;;;;;;;7.15;4.95;;;3.10;99.90;;;2.23;100.00;99451.16;4186854;28;20061;-68
2024/01/18 05:56:48;;;;;;;6.57;5.10;;;3.10;99.90;;;2.19;100.00;99451.53;4186464;28;20036;-68
2024/01/18 05:58:49;;;;;;;7.78;5.57;;;3.10;99.90;;;2.19;100.00;99449.75;4186744;28;20120;-68
2024/01/18 06:00:50;;;;;;;6.90;4.95;;;3.00;99.90;;;2.20;100.00;99456.63;4185169;28;20029;-68
2024/01/18 06:02:51;;;;;;;9.85;5.50;;;3.00;99.90;;;2.21;100.00;99463.44;4186343;28;20488;-68
2024/01/18 06:04:52;;;;;;;6.65;4.88;;;3.10;99.90;;;2.20;100.00;99468.81;4186538;28;20480;-68
2024/01/18 06:06:53;;;;;;;7.32;5.55;;;3.10;99.90;;;2.17;100.00;99469.91;4186581;28;20021;-68
2024/01/18 06:08:54;;;;;;;7.13;5.55;;;3.00;99.90;;;2.17;100.00;99479.47;4186377;28;20017;-68
2024/01/18 06:10:54;;;;;;;7.47;5.88;;;3.00;99.90;;;2.26;100.00;99486.47;4173183;28;20049;-68
2024/01/18 06:12:55;;;;;;;7.95;5.40;;;3.00;99.90;;;2.27;100.00;99484.72;4185985;28;20047;-68
2024/01/18 06:14:57;;;;;;;6.63;5.13;;;3.10;99.90;;;2.28;100.00;99494.13;4186278;28;20030;-68
2024/01/18 06:16:58;;;;;;;10.27;5.80;;;3.10;99.90;;;2.32;100.00;99501.56;4186208;28;20083;-68
2024/01/18 06:18:59;;;;;;;9.38;5.93;;;3.10;99.90;;;2.30;100.00;99503.44;4172109;28;20029;-68
2024/01/18 06:21:00;;;;;;;7.93;5.53;;;3.10;99.90;;;2.28;100.00;99504.53;4185812;28;20041;-68
2024/01/18 06:23:01;;;;;;;10.52;6.05;;;3.10;99.90;;;2.32;100.00;99518.94;4184825;28;20432;-68
2024/01/18 06:25:03;;;;;;;9.70;5.75;;;3.10;99.90;;;2.29;100.00;99520.03;4185984;28;20022;-68
2024/01/18 06:27:04;;;;;;;9.95;6.03;;;3.10;99.90;;;2.29;100.00;99538.25;4185721;28;20123;-68
2024/01/18 06:29:05;;;;;;;10.48;6.43;;;3.10;99.90;;;2.27;100.00;99544.53;4185889;28;20075;-68
2024/01/18 06:31:06;;;;;;;9.23;5.80;;;3.10;99.90;;;2.31;100.00;99556.31;4186062;28;20392;-68
2024/01/18 06:33:07;;;;;;;8.63;6.07;;;3.10;99.90;;;2.31;100.00;99561.50;4184612;28;20527;-68
2024/01/18 06:35:08;;;;;;;10.48;6.72;;;3.10;99.90;;;2.28;100.00;99564.38;4201215;28;20059;-68
2024/01/18 06:37:09;;;;;;;7.93;5.53;;;3.10;99.90;;;2.24;100.00;99572.44;4184358;28;20108;-68
2024/01/18 06:39:10;;;;;;;8.73;5.95;;;3.10;99.90;;;2.22;100.00;99579.56;4185629;28;20485;-68
2024/01/18 06:41:11;;;;;;;9.48;5.47;;;3.10;99.90;;;2.19;100.00;99582.44;4184588;28;20079;-68
2024/01/18 06:43:13;;;;;;;9.05;5.57;;;3.10;99.90;;;2.22;100.00;99589.97;4185711;28;20037;-68
2024/01/18 06:45:14;;;;;;;8.80;6.00;;;3.10;99.90;;;2.15;100.00;99594.03;4185506;28;20511;-68
2024/01/18 06:47:15;;;;;;;9.10;5.63;;;3.00;99.90;;;2.16;100.00;99606.09;4184467;28;20028;-68
2024/01/18 06:49:16;;;;;;;7.22;5.32;;;3.00;99.90;;;2.15;100.00;99604.44;4177814;28;20028;-68
2024/01/18 06:51:17;;;;;;;8.40;5.85;;;3.00;99.90;;;2.14;100.00;99615.84;4169151;28;20030;-68
2024/01/18 06:53:18;;;;;;;7.65;6.03;;;3.00;99.90;;;2.13;100.00;99610.75;4184317;28;20083;-68
2024/01/18 06:55:19;;;;;;;8.40;6.05;;;3.00;99.90;;;2.12;100.00;99609.91;4185695;28;20082;-68
2024/01/18 06:57:20;;;;;;;7.25;5.30;;;3.00;99.90;;;2.16;100.00;99616.50;4185414;28;20389;-68
2024/01/18 06:59:21;;;;;;;8.00;5.53;;;3.10;99.90;;;2.20;100.00;99624.88;4184416;28;20036;-68
2024/01/18 07:01:22;;;;;;;7.80;4.72;;;3.10;99.90;;;2.26;100.00;99633.94;4184289;28;20025;-68
2024/01/18 07:03:25;;;;;;;8.10;4.95;;;3.10;99.90;;;2.30;100.00;99633.53;4183620;28;20449;-68
2024/01/18 07:05:26;;;;;;;9.18;5.13;;;3.10;99.90;;;2.33;100.00;99638.47;4177558;28;20489;-68
2024/01/18 07:07:27;;;;;;;6.25;4.90;;;3.10;99.90;;;2.41;100.00;99645.66;4178539;28;20025;-68
2024/01/18 07:09:27;;;;;;;6.15;4.78;;;3.20;99.90;;;2.43;100.00;99651.53;4178495;28;20488;-68
2024/01/18 07:11:28;;;;;;;7.13;5.25;;;3.20;99.90;;;2.43;100.00;99651.53;4173021;28;20025;-68
2024/01/18 07:13:29;;;;;;;9.68;4.80;;;3.30;99.90;;;2.43;100.00;99667.97;4181990;28;20063;-68
2024/01/18 07:15:30;;;;;;;5.45;4.47;;;3.30;99.90;;;2.38;100.00;99667.56;4168880;28;20161;-68
2024/01/18 07:17:31;;;;;;;6.93;5.15;;;3.20;99.90;;;2.40;100.00;99672.63;4167538;28;20037;-68
2024/01/18 07:19:32;;;;;;;7.18;5.15;;;3.20;99.90;;;2.40;100.00;99677.81;4168885;28;20404;-68
2024/01/18 07:21:33;;;;;;;6.32;4.38;;;3.20;99.90;;;2.38;100.00;99677.13;4168932;28;20476;-68
2024/01/18 07:23:33;;;;;;;7.03;4.97;;;3.20;99.90;;;2.36;100.00;99679.06;4173502;28;20045;-68
2024/01/18 07:25:34;;;;;;;7.60;5.05;;;3.20;99.90;;;2.35;100.00;99682.59;4171145;28;20033;-68
2024/01/18 07:27:35;;;;;;;8.10;5.13;;;3.20;99.90;;;2.35;100.00;99696.44;4168549;28;20079;-68
2024/01/18 07:29:36;;;;;;;6.40;4.65;;;3.20;99.90;;;2.35;100.00;99703.41;4168762;28;20032;-68
2024/01/18 07:31:37;;;;;;;6.32;4.82;;;3.20;99.90;;;2.32;100.00;99698.47;4168417;28;20102;-68
2024/01/18 07:33:38;;;;;;;10.07;5.05;;;3.20;99.90;;;2.33;100.00;99710.53;4173501;28;20033;-68
2024/01/18 07:35:39;;;;;;;5.95;4.10;;;3.20;99.90;;;2.32;100.00;99708.88;4168679;28;20052;-68
2024/01/18 07:37:40;;;;;;;7.97;4.85;;;3.20;99.90;;;2.38;100.00;99708.38;4168708;28;20041;-68
2024/01/18 07:39:41;;;;;;;8.18;4.90;;;3.20;99.90;;;2.35;100.00;99721.63;4177056;28;20037;-68
2024/01/18 07:41:42;;;;;;;9.23;4.93;;;3.20;99.90;;;2.34;100.00;99718.22;4168368;28;20025;-68
2024/01/18 07:43:43;;;;;;;7.35;4.70;;;3.20;99.90;;;2.29;100.00;99725.59;4171362;28;20036;-68
2024/01/18 07:45:43;;;;;;;7.88;4.45;;;3.20;99.90;;;2.28;100.00;99738.69;4168626;28;20029;-68
2024/01/18 07:47:44;;;;;;;10.07;4.20;;;3.10;99.90;;;2.28;100.00;99736.09;4168623;28;20034;-68
2024/01/18 07:49:46;;;;;;;6.70;4.00;;;3.10;99.90;;;2.29;100.00;99756.81;4168568;28;20026;-68
2024/01/18 07:51:49;;;;;;;7.10;4.13;;;3.10;99.90;;;2.34;100.00;99753.81;4171007;28;20036;-68
2024/01/18 07:53:50;;;;;;;9.10;4.25;;;3.10;99.90;;;2.33;100.00;99759.97;4179026;28;20025;-68
2024/01/18 07:55:51;;;;;;;6.97;4.25;;;3.20;99.90;;;2.36;100.00;99765.72;4173521;28;20036;-68
2024/01/18 07:57:52;;;;;;;11.95;4.78;;;3.20;99.90;;;2.37;100.00;99776.97;4183599;28;20036;-68
2024/01/18 07:59:52;;;;;;;7.75;4.30;;;3.20;99.90;;;2.37;100.00;99784.78;4184852;28;20411;-68
2024/01/18 08:01:53;;;;;;;7.25;4.20;;;3.20;99.90;;;2.37;100.00;99792.59;4183694;28;20017;-68
2024/01/18 08:03:54;;;;;;;6.95;4.38;;;3.20;99.90;;;2.35;100.00;99786.69;4184991;28;20025;-68
2024/01/18 08:05:55;;;;;;;8.13;3.70;;;3.20;99.90;;;2.34;100.00;99795.44;4172931;28;20033;-68
2024/01/18 08:07:56;;;;;;;8.05;4.28;;;3.20;99.90;;;2.35;100.00;99808.34;4168321;28;20033;-68
2024/01/18 08:09:57;;;;;;;5.72;3.60;;;3.20;99.90;;;2.36;100.00;99809.16;4176105;28;20018;-68
2024/01/18 08:11:58;;;;;;;5.50;3.42;;;3.20;99.90;;;2.36;100.00;99815.16;4176381;28;20029;-68
2024/01/18 08:13:59;;;;;;;7.90;4.28;;;3.20;99.90;;;2.35;100.00;99823.13;4183565;28;20009;-68
2024/01/18 08:16:01;;;;;;;8.75;4.10;;;3.20;99.90;;;2.32;100.00;99825.97;4169989;28;20042;-68
2024/01/18 08:18:02;;;;;;;7.72;3.35;;;3.20;99.90;;;2.43;100.00;99829.34;4168398;28;20076;-68
2024/01/18 08:20:12;;;;;;;5.65;3.55;;;3.20;99.90;;;2.50;100.00;99838.31;4168517;28;20037;-68
2024/01/18 08:22:15;;;;;;;7.03;3.70;;;3.30;99.90;;;2.53;100.00;99842.44;4178781;28;20068;-68
2024/01/18 08:24:15;;;;;;;5.97;3.28;;;3.30;99.90;;;2.57;100.00;99843.84;4175023;28;20057;-68
2024/01/18 08:26:17;;;;;;;5.53;3.25;;;3.40;99.90;;;2.62;100.00;99857.28;4168240;28;20045;-68
2024/01/18 08:28:18;;;;;;;4.68;3.20;;;3.40;99.90;;;2.66;100.00;99858.66;4181395;28;20029;-68
2024/01/18 08:30:19;;;;;;;6.65;3.40;;;3.40;99.90;;;2.65;100.00;99864.84;4172297;28;20072;-68
2024/01/18 08:32:20;;;;;;;8.27;2.83;;;3.50;99.90;;;2.65;100.00;99868.28;4168073;28;20104;-68
2024/01/18 08:34:21;;;;;;;7.00;3.42;;;3.50;99.90;;;2.68;100.00;99869.78;4172868;28;20029;-68